createdAt,value
2023-01-17T00:00:02.048Z,99.06
2023-01-17T00:05:01.786Z,97.78
2023-01-17T00:10:01.544Z,98.33
2023-01-17T00:15:01.590Z,98.26
2023-01-17T00:20:01.608Z,98.23
2023-01-17T00:25:01.828Z,97.53
2023-01-17T00:30:01.830Z,97.59
2023-01-17T00:35:01.692Z,97.28
2023-01-17T00:40:01.912Z,97.67
2023-01-17T00:45:02.128Z,97.04
2023-01-17T00:50:02.236Z,96.22
2023-01-17T00:55:02.231Z,96
2023-01-17T01:00:02.270Z,95.81
2023-01-17T01:05:01.665Z,96.01
2023-01-17T01:10:01.921Z,95.8
2023-01-17T01:15:01.868Z,95.76
2023-01-17T01:20:02.198Z,96.13
2023-01-17T01:25:02.138Z,96.92
2023-01-17T01:30:02.190Z,96.9
2023-01-17T01:35:01.285Z,97.51
2023-01-17T01:40:01.670Z,97.7
2023-01-17T01:45:01.962Z,98.23
2023-01-17T01:50:02.177Z,98.52
2023-01-17T01:55:01.978Z,98.24
2023-01-17T02:00:01.986Z,95.47
2023-01-17T02:05:04.402Z,95.36
2023-01-17T02:10:02.213Z,96.73
2023-01-17T02:15:01.442Z,98.37
2023-01-17T02:20:01.872Z,97.79
2023-01-17T02:25:01.950Z,96.89
2023-01-17T02:30:02.229Z,97.87
2023-01-17T02:35:01.753Z,97.68
2023-01-17T02:40:01.929Z,96.72
2023-01-17T02:45:01.864Z,95.83
2023-01-17T02:50:01.977Z,95.49
2023-01-17T02:55:02.093Z,94.8
2023-01-17T03:00:02.137Z,94.43
2023-01-17T03:05:02.080Z,94.6
2023-01-17T03:10:01.420Z,93.93
2023-01-17T03:15:01.718Z,93.8
2023-01-17T03:20:01.941Z,93.83
2023-01-17T03:25:02.009Z,93.12
2023-01-17T03:30:01.371Z,93.46
2023-01-17T03:35:01.696Z,93.24
2023-01-17T03:40:01.659Z,93.55
2023-01-17T03:45:02.117Z,93.6
2023-01-17T03:50:02.038Z,93.55
2023-01-17T03:55:02.201Z,93.85
2023-01-17T04:00:01.504Z,92.97
2023-01-17T04:05:01.879Z,92.7
2023-01-17T04:10:01.544Z,92.9
2023-01-17T04:15:01.696Z,93.02
2023-01-17T04:20:02.010Z,92.73
2023-01-17T04:25:02.066Z,91.8
2023-01-17T04:30:02.070Z,91.95
2023-01-17T04:35:01.324Z,92.55
2023-01-17T04:40:01.741Z,92.25
2023-01-17T04:45:01.781Z,92.39
2023-01-17T04:50:02.126Z,91.79
2023-01-17T04:55:01.301Z,92.03
2023-01-17T05:00:01.751Z,91.88
2023-01-17T05:05:01.846Z,92.13
2023-01-17T05:10:02.190Z,92.25
2023-01-17T05:15:02.115Z,91.79
2023-01-17T05:20:02.321Z,91.58
2023-01-17T05:25:02.154Z,91.73
2023-01-17T05:30:02.068Z,91.35
2023-01-17T05:35:01.364Z,91.95
2023-01-17T05:40:01.731Z,91.88
2023-01-17T05:45:02.100Z,92.31
2023-01-17T05:50:02.155Z,92.76
2023-01-17T05:55:02.226Z,92.8
2023-01-17T06:00:01.597Z,93.61
2023-01-17T06:05:03.544Z,94.08
2023-01-17T06:10:01.726Z,93.86
2023-01-17T06:15:01.651Z,94.12
2023-01-17T06:20:01.920Z,93.73
2023-01-17T06:25:02.415Z,93.03
2023-01-17T06:30:01.783Z,93.42
2023-01-17T06:35:01.857Z,92.74
2023-01-17T06:40:02.123Z,92.52
2023-01-17T06:45:01.665Z,92.46
2023-01-17T06:50:01.991Z,92.7
2023-01-17T06:55:01.375Z,92.82
2023-01-17T07:00:01.936Z,92.47
2023-01-17T07:05:01.432Z,91.96
2023-01-17T07:10:01.459Z,91.17
2023-01-17T07:15:01.837Z,91.66
2023-01-17T07:20:01.914Z,91.67
2023-01-17T07:25:01.364Z,91.68
2023-01-17T07:30:01.832Z,91.28
2023-01-17T07:35:02.035Z,91.06
2023-01-17T07:40:02.295Z,90.94
2023-01-17T07:45:02.082Z,90.42
2023-01-17T07:50:01.939Z,90.65
2023-01-17T07:55:02.017Z,90.46
2023-01-17T08:00:01.305Z,90.68
2023-01-17T08:05:02.173Z,90.82
2023-01-17T08:10:01.797Z,90.78
2023-01-17T08:15:02.267Z,90.61
2023-01-17T08:20:01.923Z,90.46
2023-01-17T08:25:01.754Z,91.01
2023-01-17T08:30:02.211Z,91.79
2023-01-17T08:35:01.566Z,91.43
2023-01-17T08:40:01.963Z,91
2023-01-17T08:45:02.024Z,90.9
2023-01-17T08:50:01.326Z,91.42
2023-01-17T08:55:01.710Z,90.8
2023-01-17T09:00:01.955Z,90.94
2023-01-17T09:05:01.654Z,90.1
2023-01-17T09:10:02.245Z,90.1
2023-01-17T09:15:01.361Z,89.85
2023-01-17T09:20:01.820Z,88.54
2023-01-17T09:25:02.118Z,88.56
2023-01-17T09:30:01.368Z,87.52
2023-01-17T09:35:01.866Z,87.01
2023-01-17T09:40:02.007Z,86.1
2023-01-17T09:45:01.355Z,86.59
2023-01-17T09:50:01.849Z,87.63
2023-01-17T09:55:02.257Z,88.46
2023-01-17T10:00:03.823Z,87.75
2023-01-17T10:05:02.242Z,87.29
2023-01-17T10:10:01.301Z,85.42
2023-01-17T10:15:01.869Z,86.65
2023-01-17T10:20:02.275Z,87.6
2023-01-17T10:25:01.395Z,86.54
2023-01-17T10:30:01.831Z,87.91
2023-01-17T10:35:02.174Z,87.91
2023-01-17T10:40:01.430Z,87.94
2023-01-17T10:45:02.042Z,87.1
2023-01-17T10:50:01.426Z,85.96
2023-01-17T10:55:01.805Z,83.94
2023-01-17T11:00:02.044Z,82.47
2023-01-17T11:05:01.350Z,84.03
2023-01-17T11:10:02.178Z,84.76
2023-01-17T11:15:02.258Z,83.41
2023-01-17T11:20:01.335Z,80.11
2023-01-17T11:25:01.876Z,82.44
2023-01-17T11:30:02.181Z,81.25
2023-01-17T11:35:02.174Z,79.45
2023-01-17T11:40:01.371Z,80.14
2023-01-17T11:45:01.863Z,77.52
2023-01-17T11:50:01.840Z,79.58
2023-01-17T11:55:02.122Z,80.41
2023-01-17T12:00:02.288Z,80.83
2023-01-17T12:05:02.016Z,81.18
2023-01-17T12:10:01.528Z,77.33
2023-01-17T12:15:01.585Z,77.22
2023-01-17T12:20:02.276Z,77.26
2023-01-17T12:25:01.615Z,77.36
2023-01-17T12:30:02.224Z,78.63
2023-01-17T12:35:01.776Z,76.25
2023-01-17T12:40:02.080Z,76.1
2023-01-17T12:45:01.343Z,76.04
2023-01-17T12:50:01.884Z,76.6
2023-01-17T12:55:01.969Z,76.68
2023-01-17T13:00:02.268Z,76.38
2023-01-17T13:05:01.435Z,76.84
2023-01-17T13:10:01.288Z,78
2023-01-17T13:15:01.667Z,75.33
2023-01-17T13:20:01.411Z,75.88
2023-01-17T13:25:02.120Z,73.45
2023-01-17T13:30:01.565Z,74.02
2023-01-17T13:35:01.937Z,71.88
2023-01-17T13:40:02.060Z,73.94
2023-01-17T13:45:02.201Z,73.78
2023-01-17T13:50:01.542Z,73.05
2023-01-17T13:55:02.033Z,74.17
2023-01-17T14:00:01.387Z,73.26
2023-01-17T14:05:02.316Z,74.03
2023-01-17T14:10:02.243Z,72.13
2023-01-17T14:15:02.228Z,72.81
2023-01-17T14:20:01.602Z,73.3
2023-01-17T14:25:02.095Z,74.49
2023-01-17T14:30:02.547Z,72.89
2023-01-17T14:35:02.146Z,73.71
2023-01-17T14:40:01.832Z,73.35
2023-01-17T14:45:01.727Z,73.36
2023-01-17T14:50:02.004Z,73.75
2023-01-17T14:55:02.279Z,72.91
2023-01-17T15:00:01.337Z,73.87
2023-01-17T15:05:01.832Z,74.81
2023-01-17T15:10:01.553Z,74.88
2023-01-17T15:15:01.482Z,74.88
2023-01-17T15:20:02.133Z,78.85
2023-01-17T15:25:02.216Z,79.23
2023-01-17T15:30:01.836Z,78.94
2023-01-17T15:35:01.528Z,79.42
2023-01-17T15:40:01.766Z,80.96
2023-01-17T15:45:02.096Z,79.44
2023-01-17T15:50:01.356Z,79.67
2023-01-17T15:55:01.612Z,79.67
2023-01-17T16:00:01.994Z,78.74
2023-01-17T16:05:01.448Z,80.17
2023-01-17T16:10:02.146Z,79.35
2023-01-17T16:15:12.337Z,79.51
2023-01-17T16:20:01.795Z,79.43
2023-01-17T16:25:01.989Z,79.55
2023-01-17T16:30:02.298Z,81.05
2023-01-17T16:35:01.777Z,81.15
2023-01-17T16:40:02.235Z,80.76
2023-01-17T16:45:01.278Z,81.18
2023-01-17T16:50:01.696Z,82.52
2023-01-17T16:55:01.806Z,84.6
2023-01-17T17:00:02.143Z,86.04
2023-01-17T17:05:01.477Z,87.21
2023-01-17T17:10:01.925Z,87.55
2023-01-17T17:15:01.963Z,88.1
2023-01-17T17:20:01.454Z,89.78
2023-01-17T17:25:01.805Z,90.42
2023-01-17T17:30:01.977Z,92.13
2023-01-17T17:35:01.344Z,91.97
2023-01-17T17:40:01.793Z,92.02
2023-01-17T17:45:02.096Z,92.25
2023-01-17T17:50:01.319Z,92.45
2023-01-17T17:55:01.930Z,92.67
2023-01-17T18:00:02.033Z,92.91
2023-01-17T18:05:02.381Z,93.23
2023-01-17T18:10:01.812Z,93.28
2023-01-17T18:15:01.479Z,93.59
2023-01-17T18:20:01.455Z,94.31
2023-01-17T18:25:01.431Z,94.68
2023-01-17T18:30:01.312Z,95.25
2023-01-17T18:35:01.798Z,95.22
2023-01-17T18:40:02.225Z,95.61
2023-01-17T18:45:01.653Z,95.94
2023-01-17T18:50:02.071Z,96.16
2023-01-17T18:55:02.133Z,96.39
2023-01-17T19:00:02.255Z,96.59
2023-01-17T19:05:01.810Z,96.63
2023-01-17T19:10:02.168Z,96.59
2023-01-17T19:15:01.723Z,96.59
2023-01-17T19:20:01.351Z,96.44
2023-01-17T19:25:01.739Z,96.53
2023-01-17T19:30:02.072Z,96.44
2023-01-17T19:35:01.734Z,96.64
2023-01-17T19:40:02.218Z,96.28
2023-01-17T19:45:01.595Z,96.55
2023-01-17T19:50:02.069Z,96.54
2023-01-17T19:55:02.230Z,96.27
2023-01-17T20:00:01.492Z,96.49
2023-01-17T20:05:01.837Z,96.47
2023-01-17T20:10:02.220Z,96.86
2023-01-17T20:15:01.784Z,97.21
2023-01-17T20:20:02.200Z,97.29
2023-01-17T20:25:01.479Z,97.51
2023-01-17T20:30:18.605Z,97.6
2023-01-17T20:35:02.206Z,97.91
2023-01-17T20:40:01.417Z,98.21
2023-01-17T20:45:01.663Z,98.4
2023-01-17T20:50:01.907Z,97.37
2023-01-17T20:55:02.045Z,97.37
2023-01-17T21:00:01.490Z,98.17
2023-01-17T21:05:01.979Z,98.03
2023-01-17T21:10:01.489Z,97.67
2023-01-17T21:15:01.695Z,97.82
2023-01-17T21:20:01.879Z,97.89
2023-01-17T21:25:01.642Z,97.89
2023-01-17T21:30:01.881Z,97.89
2023-01-17T21:35:02.367Z,98.04
2023-01-17T21:40:04.290Z,98.24
2023-01-17T21:45:02.203Z,97.63
2023-01-17T21:50:01.262Z,98.17
2023-01-17T21:55:01.716Z,97.29
2023-01-17T22:00:01.608Z,98.24
2023-01-17T22:05:02.274Z,97.57
2023-01-17T22:10:01.640Z,98.08
2023-01-17T22:15:02.087Z,98.15
2023-01-17T22:20:01.379Z,96.79
2023-01-17T22:25:01.860Z,97.95
2023-01-17T22:30:02.123Z,98.14
2023-01-17T22:35:01.301Z,98.01
2023-01-17T22:40:01.750Z,94.93
2023-01-17T22:45:01.884Z,97.91
2023-01-17T22:50:02.122Z,96.2
2023-01-17T22:55:01.388Z,98.08
2023-01-17T23:00:01.843Z,96.97
2023-01-17T23:05:01.865Z,94.86
2023-01-17T23:10:02.166Z,98.09
2023-01-17T23:15:02.185Z,96.9
2023-01-17T23:20:02.242Z,94.99
2023-01-17T23:25:01.524Z,98.18
2023-01-17T23:30:01.960Z,97.35
2023-01-17T23:35:02.071Z,96.27
2023-01-17T23:40:02.123Z,98.27
2023-01-17T23:45:02.189Z,98.37
2023-01-17T23:50:01.549Z,98.36
2023-01-17T23:55:01.708Z,98.34
